createdAt,value
2018-10-18T00:01:40.691Z,53.67
2018-10-18T00:04:07.596Z,54.83
2018-10-18T00:06:34.506Z,55.10
2018-10-18T00:09:01.398Z,58.20
2018-10-18T00:11:28.296Z,54.67
2018-10-18T00:13:55.235Z,52.17
2018-10-18T00:16:22.072Z,58.43
2018-10-18T00:18:48.994Z,55.27
2018-10-18T00:21:15.873Z,55.90
2018-10-18T00:23:42.854Z,55.33
2018-10-18T00:26:09.809Z,55.53
2018-10-18T00:28:36.661Z,55.63
2018-10-18T00:31:03.600Z,56.27
2018-10-18T00:33:30.485Z,56.60
2018-10-18T00:35:57.501Z,56.77
2018-10-18T00:38:24.402Z,56.97
2018-10-18T00:40:51.343Z,52.60
2018-10-18T00:43:18.232Z,55.60
2018-10-18T00:45:45.133Z,60.60
2018-10-18T00:48:12.115Z,55.70
2018-10-18T00:50:39.010Z,57.20
2018-10-18T00:53:05.904Z,53.27
2018-10-18T00:55:32.789Z,59.07
2018-10-18T00:57:59.682Z,55.50
2018-10-18T01:00:26.562Z,60.37
2018-10-18T01:02:53.531Z,54.40
2018-10-18T01:05:20.460Z,60.33
2018-10-18T01:07:47.372Z,54.63
2018-10-18T01:10:14.288Z,53.63
2018-10-18T01:12:41.279Z,57.20
2018-10-18T01:15:08.079Z,57.97
2018-10-18T01:17:34.978Z,58.40
2018-10-18T01:20:01.957Z,54.40
2018-10-18T01:22:28.835Z,54.43
2018-10-18T01:24:55.727Z,57.30
2018-10-18T01:27:22.639Z,56.30
2018-10-18T01:29:49.626Z,57.03
2018-10-18T01:32:16.716Z,57.27
2018-10-18T01:34:43.531Z,56.90
2018-10-18T01:37:10.423Z,56.70
2018-10-18T01:39:37.333Z,65.70
2018-10-18T01:42:05.084Z,61.30
2018-10-18T01:44:31.932Z,63.17
2018-10-18T01:46:58.839Z,59.17
2018-10-18T01:49:25.720Z,58.50
2018-10-18T01:51:52.612Z,53.73
2018-10-18T01:54:19.480Z,55.30
2018-10-18T01:56:46.360Z,60.57
2018-10-18T01:59:13.264Z,57.57
2018-10-18T02:01:40.172Z,51.97
2018-10-18T02:04:07.052Z,54.37
2018-10-18T02:06:33.952Z,52.40
2018-10-18T02:09:00.837Z,52.93
2018-10-18T02:11:27.712Z,56.00
2018-10-18T02:13:54.594Z,52.43
2018-10-18T02:16:21.495Z,54.33
2018-10-18T02:18:48.390Z,57.07
2018-10-18T02:21:15.333Z,53.77
2018-10-18T02:23:42.235Z,54.70
2018-10-18T02:26:09.815Z,53.87
2018-10-18T02:28:36.728Z,56.77
2018-10-18T02:31:04.021Z,57.47
2018-10-18T02:33:30.919Z,56.70
2018-10-18T02:35:57.932Z,57.37
2018-10-18T02:38:24.769Z,59.53
2018-10-18T02:40:51.644Z,70.23
2018-10-18T02:43:18.549Z,60.33
2018-10-18T02:45:45.426Z,63.80
2018-10-18T02:48:12.376Z,68.67
2018-10-18T02:50:39.251Z,63.73
2018-10-18T02:53:06.126Z,63.00
2018-10-18T02:55:33.046Z,67.73
2018-10-18T02:57:59.931Z,66.90
2018-10-18T03:00:26.837Z,68.40
2018-10-18T03:02:53.871Z,66.37
2018-10-18T03:05:20.771Z,68.00
2018-10-18T03:07:47.651Z,65.93
2018-10-18T03:10:14.559Z,61.93
2018-10-18T03:12:41.429Z,64.90
2018-10-18T03:15:09.331Z,76.20
2018-10-18T03:17:36.293Z,68.43
2018-10-18T03:20:03.251Z,61.33
2018-10-18T03:22:30.132Z,62.63
2018-10-18T03:24:57.037Z,62.43
2018-10-18T03:27:23.921Z,59.93
2018-10-18T03:29:50.846Z,68.23
2018-10-18T03:32:17.826Z,69.43
2018-10-18T03:34:44.742Z,69.97
2018-10-18T03:37:11.671Z,66.87
2018-10-18T03:39:38.558Z,57.80
2018-10-18T03:42:05.540Z,57.47
2018-10-18T03:44:32.435Z,63.67
2018-10-18T03:46:59.337Z,62.57
2018-10-18T03:49:26.221Z,61.87
2018-10-18T03:51:53.130Z,65.60
2018-10-18T03:54:20.136Z,57.20
2018-10-18T03:56:47.301Z,58.23
2018-10-18T03:59:14.173Z,59.37
2018-10-18T04:01:41.089Z,62.43
2018-10-18T04:04:07.987Z,59.57
2018-10-18T04:06:34.913Z,65.83
2018-10-18T04:09:02.044Z,64.20
2018-10-18T04:11:28.961Z,63.57
2018-10-18T04:13:55.908Z,65.90
2018-10-18T04:16:22.799Z,60.17
2018-10-18T04:18:49.814Z,62.63
2018-10-18T04:21:16.797Z,57.20
2018-10-18T04:23:43.698Z,55.87
2018-10-18T04:26:10.649Z,55.20
2018-10-18T04:28:37.563Z,58.47
2018-10-18T04:31:04.489Z,57.63
2018-10-18T04:33:31.665Z,59.17
2018-10-18T04:35:58.574Z,72.87
2018-10-18T04:38:25.431Z,58.13
2018-10-18T04:40:52.332Z,58.00
2018-10-18T04:43:19.268Z,59.67
2018-10-18T04:45:46.143Z,56.00
2018-10-18T04:48:13.482Z,56.80
2018-10-18T04:50:40.294Z,57.53
2018-10-18T04:53:07.191Z,55.47
2018-10-18T04:55:34.081Z,57.30
2018-10-18T04:58:00.999Z,58.83
2018-10-18T05:00:27.975Z,56.47
2018-10-18T05:02:54.909Z,57.67
2018-10-18T05:05:33.393Z,59.30
2018-10-18T05:08:00.317Z,56.53
2018-10-18T05:10:27.196Z,61.70
2018-10-18T05:12:54.220Z,62.90
2018-10-18T05:15:21.144Z,61.17
2018-10-18T05:17:48.043Z,62.00
2018-10-18T05:20:14.918Z,62.93
2018-10-18T05:22:41.846Z,58.30
2018-10-18T05:25:09.136Z,56.43
2018-10-18T05:27:35.927Z,62.30
2018-10-18T05:30:02.836Z,58.67
2018-10-18T05:32:29.754Z,59.73
2018-10-18T05:34:56.634Z,68.37
2018-10-18T05:37:23.857Z,64.30
2018-10-18T05:39:50.742Z,64.77
2018-10-18T05:42:17.761Z,63.30
2018-10-18T05:44:44.679Z,70.97
2018-10-18T05:47:11.666Z,67.67
2018-10-18T05:49:38.522Z,62.43
2018-10-18T05:52:05.619Z,63.87
2018-10-18T05:54:32.485Z,81.43
2018-10-18T05:56:59.433Z,80.77
2018-10-18T05:59:26.365Z,66.83
2018-10-18T06:01:53.280Z,70.47
2018-10-18T06:04:20.176Z,79.73
2018-10-18T06:06:47.113Z,76.63
2018-10-18T06:09:24.913Z,73.33
2018-10-18T06:11:51.927Z,83.23
2018-10-18T06:14:18.859Z,80.17
2018-10-18T06:16:45.765Z,78.47
2018-10-18T06:19:12.739Z,84.50
2018-10-18T06:21:39.593Z,71.30
2018-10-18T06:24:06.512Z,77.50
2018-10-18T06:26:33.443Z,69.53
2018-10-18T06:29:00.429Z,77.10
2018-10-18T06:31:27.856Z,77.07
2018-10-18T06:33:54.795Z,71.07
2018-10-18T06:36:21.779Z,71.53
2018-10-18T06:38:48.787Z,67.47
2018-10-18T06:41:15.751Z,66.97
2018-10-18T06:43:42.667Z,72.87
2018-10-18T06:46:11.301Z,76.03
2018-10-18T06:48:38.456Z,68.30
2018-10-18T06:51:05.672Z,73.13
2018-10-18T06:53:32.606Z,73.63
2018-10-18T06:56:00.040Z,70.43
2018-10-18T06:58:26.928Z,72.07
2018-10-18T07:00:53.879Z,79.30
2018-10-18T07:03:20.843Z,71.77
2018-10-18T07:05:47.811Z,74.77
2018-10-18T07:08:14.732Z,68.13
2018-10-18T07:10:41.677Z,67.67
2018-10-18T07:13:08.652Z,84.67
2018-10-18T07:15:35.593Z,69.73
2018-10-18T07:18:02.567Z,82.80
2018-10-18T07:20:29.445Z,69.43
2018-10-18T07:22:56.365Z,69.33
2018-10-18T07:25:23.369Z,77.37
2018-10-18T07:32:44.483Z,77.40
2018-10-18T07:35:12.631Z,75.80
2018-10-18T07:37:39.544Z,86.17
2018-10-18T07:40:08.287Z,77.53
2018-10-18T07:42:35.306Z,77.20
2018-10-18T07:45:02.263Z,77.27
2018-10-18T07:47:29.220Z,74.40
2018-10-18T07:49:56.176Z,75.60
2018-10-18T07:52:23.080Z,76.00
2018-10-18T07:54:50.088Z,70.40
2018-10-18T07:57:17.097Z,74.80
2018-10-18T07:59:44.014Z,80.33
2018-10-18T08:02:10.930Z,80.73
2018-10-18T08:04:37.843Z,81.40
2018-10-18T08:07:05.099Z,78.77
2018-10-18T08:09:32.033Z,77.40
2018-10-18T08:11:59.679Z,79.63
2018-10-18T08:14:26.613Z,73.50
2018-10-18T08:16:53.558Z,69.93
2018-10-18T08:19:20.490Z,73.50
2018-10-18T08:21:47.473Z,72.37
2018-10-18T08:24:14.452Z,77.63
2018-10-18T08:26:41.437Z,73.53
2018-10-18T08:29:08.476Z,79.23
2018-10-18T08:31:35.458Z,78.63
2018-10-18T08:34:02.328Z,78.00
2018-10-18T08:36:29.305Z,76.60
2018-10-18T08:38:56.252Z,74.83
2018-10-18T08:41:23.220Z,75.03
2018-10-18T08:43:50.830Z,78.07
2018-10-18T08:46:17.894Z,88.13
2018-10-18T08:48:44.807Z,76.40
2018-10-18T08:51:11.725Z,77.30
2018-10-18T08:53:39.626Z,83.50
2018-10-18T08:56:06.602Z,71.03
2018-10-18T08:58:33.693Z,76.10
2018-10-18T09:01:00.679Z,76.97
2018-10-18T09:03:27.633Z,80.93
2018-10-18T09:05:54.597Z,82.37
2018-10-18T09:08:21.574Z,80.87
2018-10-18T09:10:48.475Z,75.67
2018-10-18T09:13:15.530Z,79.00
2018-10-18T09:15:42.487Z,75.40
2018-10-18T09:18:09.431Z,71.03
2018-10-18T09:20:36.389Z,77.30
2018-10-18T09:23:03.415Z,76.93
2018-10-18T09:25:30.354Z,79.23
2018-10-18T09:27:57.404Z,69.00
2018-10-18T09:30:24.862Z,81.87
2018-10-18T09:32:51.688Z,76.67
2018-10-18T09:35:18.644Z,84.23
2018-10-18T09:37:45.550Z,75.57
2018-10-18T09:40:12.611Z,74.50
2018-10-18T09:42:39.829Z,76.73
2018-10-18T09:45:08.068Z,67.47
2018-10-18T09:47:34.998Z,67.13
2018-10-18T09:50:01.990Z,65.33
2018-10-18T09:52:28.950Z,66.50
2018-10-18T09:54:55.867Z,69.82
2018-10-18T09:57:22.799Z,68.83
2018-10-18T09:59:49.765Z,65.43
2018-10-18T10:02:22.531Z,61.17
2018-10-18T10:04:49.473Z,62.93
2018-10-18T10:07:17.397Z,63.42
2018-10-18T10:09:44.261Z,64.25
2018-10-18T10:12:11.169Z,62.77
2018-10-18T10:14:38.087Z,58.87
2018-10-18T10:17:05.419Z,61.73
2018-10-18T10:19:32.340Z,57.03
2018-10-18T10:21:59.416Z,57.47
2018-10-18T10:24:26.407Z,59.38
2018-10-18T10:26:53.428Z,60.55
2018-10-18T10:29:20.328Z,65.40
2018-10-18T10:31:47.516Z,56.65
2018-10-18T10:34:14.406Z,61.35
2018-10-18T10:36:41.381Z,59.37
2018-10-18T10:39:08.836Z,54.98
2018-10-18T10:41:36.261Z,58.30
2018-10-18T10:44:05.472Z,51.67
2018-10-18T10:46:33.075Z,57.37
2018-10-18T10:49:00.971Z,56.70
2018-10-18T10:51:27.908Z,53.23
2018-10-18T10:53:54.838Z,57.05
2018-10-18T10:56:21.840Z,51.92
2018-10-18T10:58:48.795Z,50.20
2018-10-18T11:01:18.879Z,53.87
2018-10-18T11:03:46.276Z,50.60
2018-10-18T11:06:13.643Z,47.53
2018-10-18T11:08:40.590Z,47.33
2018-10-18T11:11:07.926Z,45.07
2018-10-18T11:13:34.882Z,43.27
2018-10-18T11:16:02.689Z,41.90
2018-10-18T11:18:30.394Z,43.70
2018-10-18T11:20:57.425Z,43.70
2018-10-18T11:23:24.340Z,47.48
2018-10-18T11:25:51.399Z,47.10
2018-10-18T11:28:18.935Z,43.83
2018-10-18T11:30:46.663Z,45.98
2018-10-18T11:33:13.864Z,46.60
2018-10-18T11:35:41.142Z,44.18
2018-10-18T11:38:08.176Z,45.17
2018-10-18T11:40:35.419Z,48.83
2018-10-18T11:43:02.378Z,46.75
2018-10-18T11:45:29.300Z,49.98
2018-10-18T11:47:56.286Z,46.92
2018-10-18T11:50:23.228Z,45.97
2018-10-18T11:52:50.174Z,45.47
2018-10-18T11:55:17.154Z,45.88
2018-10-18T11:57:44.241Z,49.70
2018-10-18T12:00:15.844Z,45.30
2018-10-18T12:02:42.932Z,48.00
2018-10-18T12:05:10.026Z,47.33
2018-10-18T12:07:37.074Z,52.53
2018-10-18T12:10:04.373Z,45.23
2018-10-18T12:12:31.300Z,48.30
2018-10-18T12:14:58.224Z,49.17
2018-10-18T12:17:25.185Z,60.45
2018-10-18T12:19:52.152Z,49.40
2018-10-18T12:22:19.137Z,48.77
2018-10-18T12:24:46.126Z,52.58
2018-10-18T12:27:13.068Z,47.33
2018-10-18T12:29:40.004Z,46.37
2018-10-18T12:32:07.042Z,46.95
2018-10-18T12:34:33.894Z,53.25
2018-10-18T12:37:00.811Z,46.90
2018-10-18T12:39:27.786Z,49.18
2018-10-18T12:41:54.797Z,51.55
2018-10-18T12:44:21.689Z,52.95
2018-10-18T12:46:48.615Z,50.48
2018-10-18T12:49:15.580Z,48.50
2018-10-18T12:51:42.480Z,53.43
2018-10-18T12:54:09.405Z,48.17
2018-10-18T12:56:36.428Z,52.00
2018-10-18T12:59:03.395Z,49.27
2018-10-18T13:01:30.344Z,52.20
2018-10-18T13:03:57.274Z,49.63
2018-10-18T13:06:26.524Z,52.77
2018-10-18T13:08:53.686Z,54.65
2018-10-18T13:11:20.548Z,53.50
2018-10-18T13:13:47.486Z,63.45
2018-10-18T13:16:14.401Z,58.15
2018-10-18T13:18:41.339Z,57.57
2018-10-18T13:21:08.288Z,58.43
2018-10-18T13:23:35.215Z,62.97
2018-10-18T13:26:02.191Z,61.35
2018-10-18T13:28:29.061Z,63.40
2018-10-18T13:30:56.022Z,61.05
2018-10-18T13:33:22.932Z,60.27
2018-10-18T13:35:49.896Z,57.43
2018-10-18T13:38:16.945Z,61.70
2018-10-18T13:40:43.863Z,61.97
2018-10-18T13:43:10.755Z,55.03
2018-10-18T13:45:37.686Z,55.53
2018-10-18T13:48:04.753Z,49.73
2018-10-18T13:50:31.662Z,56.33
2018-10-18T13:52:58.620Z,56.30
2018-10-18T13:55:25.601Z,53.45
2018-10-18T13:57:52.536Z,54.17
2018-10-18T14:00:21.590Z,55.48
2018-10-18T14:02:49.131Z,54.40
2018-10-18T14:05:16.197Z,57.10
2018-10-18T14:07:43.224Z,54.87
2018-10-18T14:10:10.185Z,59.87
2018-10-18T14:12:37.135Z,59.00
2018-10-18T14:15:04.717Z,56.33
2018-10-18T14:17:31.781Z,58.98
2018-10-18T14:19:58.640Z,56.10
2018-10-18T14:22:25.584Z,56.53
2018-10-18T14:24:52.550Z,58.55
2018-10-18T14:27:19.456Z,59.03
2018-10-18T14:29:46.438Z,58.98
2018-10-18T14:32:13.445Z,56.33
2018-10-18T14:39:34.857Z,65.83
2018-10-18T14:42:01.852Z,65.08
2018-10-18T14:44:28.979Z,62.10
2018-10-18T14:46:55.850Z,62.75
2018-10-18T14:49:22.887Z,62.70
2018-10-18T14:51:49.827Z,63.52
2018-10-18T14:54:16.787Z,68.15
2018-10-18T14:56:43.755Z,64.12
2018-10-18T14:59:10.785Z,60.15
2018-10-18T15:01:37.795Z,63.83
2018-10-18T15:04:05.322Z,64.40
2018-10-18T15:06:32.305Z,64.05
2018-10-18T15:08:59.213Z,62.90
2018-10-18T15:11:26.649Z,59.65
2018-10-18T15:13:53.600Z,63.33
2018-10-18T15:16:20.524Z,69.95
2018-10-18T15:18:47.516Z,64.43
2018-10-18T15:21:14.498Z,62.93
2018-10-18T15:23:41.427Z,71.45
2018-10-18T15:26:08.426Z,57.90
2018-10-18T15:28:35.361Z,60.73
2018-10-18T15:31:02.269Z,57.70
2018-10-18T15:33:29.229Z,58.80
2018-10-18T15:35:56.185Z,61.98
2018-10-18T15:38:23.339Z,63.23
2018-10-18T15:40:50.167Z,58.20
2018-10-18T15:43:17.206Z,64.37
2018-10-18T15:45:44.147Z,66.80
2018-10-18T15:48:11.078Z,59.40
2018-10-18T15:50:38.037Z,57.80
2018-10-18T15:53:05.075Z,63.65
2018-10-18T15:55:32.042Z,54.77
2018-10-18T15:57:59.058Z,55.40
2018-10-18T16:00:26.093Z,57.70
2018-10-18T16:02:53.007Z,63.33
2018-10-18T16:05:20.000Z,54.90
2018-10-18T16:07:46.994Z,64.80
2018-10-18T16:10:14.000Z,56.98
2018-10-18T16:12:40.966Z,63.90
2018-10-18T16:15:08.899Z,60.40
2018-10-18T16:17:35.932Z,64.42
2018-10-18T16:20:02.998Z,56.77
2018-10-18T16:22:29.924Z,57.90
2018-10-18T16:24:56.904Z,65.08
2018-10-18T16:27:23.885Z,66.37
2018-10-18T16:29:50.829Z,62.48
2018-10-18T16:32:17.927Z,66.70
2018-10-18T16:34:44.819Z,65.80
2018-10-18T16:37:11.747Z,63.20
2018-10-18T16:39:38.685Z,57.53
2018-10-18T16:42:05.769Z,66.77
2018-10-18T16:44:32.697Z,59.93
2018-10-18T16:46:59.600Z,60.13
2018-10-18T16:49:26.515Z,61.23
2018-10-18T16:51:54.200Z,56.83
2018-10-18T16:54:21.231Z,65.87
2018-10-18T16:56:48.173Z,55.57
2018-10-18T16:59:15.128Z,49.47
2018-10-18T17:01:42.101Z,50.73
2018-10-18T17:04:09.298Z,58.70
2018-10-18T17:06:36.304Z,56.93
2018-10-18T17:09:05.159Z,55.10
2018-10-18T17:11:32.087Z,45.53
2018-10-18T17:13:59.065Z,41.17
2018-10-18T17:16:26.137Z,41.83
2018-10-18T17:18:53.064Z,36.23
2018-10-18T17:21:20.090Z,29.43
2018-10-18T17:23:46.970Z,31.93
2018-10-18T17:26:13.984Z,31.57
2018-10-18T17:28:40.917Z,27.97
2018-10-18T17:31:07.887Z,28.73
2018-10-18T17:33:34.867Z,27.90
2018-10-18T17:36:01.932Z,34.67
2018-10-18T17:38:28.872Z,30.43
2018-10-18T17:40:55.807Z,41.77
2018-10-18T17:43:22.792Z,41.77
2018-10-18T17:45:49.733Z,42.13
2018-10-18T17:48:16.824Z,39.00
2018-10-18T17:50:43.730Z,41.57
2018-10-18T17:53:10.776Z,38.50
2018-10-18T17:55:37.668Z,43.10
2018-10-18T17:58:04.690Z,42.33
2018-10-18T18:00:31.768Z,50.37
2018-10-18T18:02:58.689Z,46.67
2018-10-18T18:05:25.702Z,46.53
2018-10-18T18:07:52.755Z,39.77
2018-10-18T18:10:19.799Z,37.77
2018-10-18T18:12:46.941Z,36.87
2018-10-18T18:15:13.969Z,39.57
2018-10-18T18:17:41.060Z,47.00
2018-10-18T18:20:09.405Z,43.60
2018-10-18T18:22:36.371Z,35.97
2018-10-18T18:25:04.559Z,45.53
2018-10-18T18:27:31.582Z,36.47
2018-10-18T18:29:58.669Z,33.47
2018-10-18T18:32:25.602Z,37.80
2018-10-18T18:34:52.807Z,34.50
2018-10-18T18:37:19.758Z,33.23
2018-10-18T18:39:46.990Z,36.60
2018-10-18T18:42:14.114Z,33.80
2018-10-18T18:44:41.073Z,35.40
2018-10-18T18:47:08.122Z,36.40
2018-10-18T18:49:35.128Z,37.30
2018-10-18T18:52:02.259Z,33.13
2018-10-18T18:54:29.238Z,34.17
2018-10-18T18:56:56.274Z,31.07
2018-10-18T18:59:23.250Z,28.10
2018-10-18T19:01:50.472Z,33.63
2018-10-18T19:04:17.561Z,33.53
2018-10-18T19:06:44.569Z,28.60
2018-10-18T19:09:11.673Z,31.83
2018-10-18T19:11:38.955Z,25.40
2018-10-18T19:14:06.534Z,26.07
2018-10-18T19:16:33.494Z,27.83
2018-10-18T19:19:00.521Z,24.23
2018-10-18T19:21:27.594Z,25.03
2018-10-18T19:23:54.606Z,22.00
2018-10-18T19:26:21.664Z,19.93
2018-10-18T19:28:49.001Z,19.47
2018-10-18T19:31:16.038Z,25.77
2018-10-18T19:33:42.958Z,23.47
2018-10-18T19:36:10.003Z,19.23
2018-10-18T19:38:37.305Z,20.67
2018-10-18T19:41:04.223Z,19.20
2018-10-18T19:43:31.220Z,20.93
2018-10-18T19:45:58.419Z,18.83
2018-10-18T19:48:25.486Z,18.83
2018-10-18T19:50:52.524Z,22.77
2018-10-18T19:53:19.604Z,22.83
2018-10-18T19:55:46.912Z,23.40
2018-10-18T19:58:13.965Z,16.77
2018-10-18T20:00:41.056Z,19.17
2018-10-18T20:03:08.059Z,17.73
2018-10-18T20:05:35.278Z,15.60
2018-10-18T20:08:02.372Z,19.00
2018-10-18T20:10:30.074Z,21.90
2018-10-18T20:12:57.220Z,16.57
2018-10-18T20:15:24.256Z,21.50
2018-10-18T20:17:51.536Z,19.60
2018-10-18T20:20:18.761Z,13.90
2018-10-18T20:22:45.748Z,18.30
2018-10-18T20:25:12.843Z,15.63
2018-10-18T20:27:39.936Z,15.07
2018-10-18T20:30:09.698Z,16.53
2018-10-18T20:32:36.692Z,16.93
2018-10-18T20:35:04.442Z,17.40
2018-10-18T20:37:31.697Z,17.10
2018-10-18T20:39:58.731Z,15.47
2018-10-18T20:42:25.743Z,24.77
2018-10-18T20:44:52.739Z,20.73
2018-10-18T20:47:19.886Z,16.63
2018-10-18T20:49:46.847Z,20.07
2018-10-18T20:52:13.978Z,16.23
2018-10-18T20:54:40.886Z,18.60
2018-10-18T20:57:08.542Z,15.73
2018-10-18T20:59:36.293Z,17.17
2018-10-18T21:02:03.281Z,18.27
2018-10-18T21:04:30.214Z,27.93
2018-10-18T21:06:57.179Z,18.80
2018-10-18T21:09:24.236Z,20.90
2018-10-18T21:11:51.178Z,16.57
2018-10-18T21:14:19.678Z,19.67
2018-10-18T21:16:46.728Z,16.27
2018-10-18T21:19:13.935Z,16.43
2018-10-18T21:21:41.061Z,16.27
2018-10-18T21:24:07.951Z,18.53
2018-10-18T21:26:34.869Z,14.60
2018-10-18T21:29:02.488Z,14.17
2018-10-18T21:31:29.456Z,14.87
2018-10-18T21:33:56.378Z,15.00
2018-10-18T21:36:23.469Z,14.20
2018-10-18T21:38:52.961Z,16.87
2018-10-18T21:41:19.902Z,17.53
2018-10-18T21:43:46.829Z,11.87
2018-10-18T21:46:14.809Z,13.33
2018-10-18T21:48:42.707Z,13.57
2018-10-18T21:51:09.819Z,9.27
2018-10-18T21:53:36.699Z,10.40
2018-10-18T21:56:04.082Z,6.87
2018-10-18T21:58:31.028Z,12.77
2018-10-18T22:00:57.981Z,9.23
2018-10-18T22:03:24.944Z,10.57
2018-10-18T22:05:51.865Z,10.07
2018-10-18T22:08:18.846Z,9.07
2018-10-18T22:10:45.799Z,12.13
2018-10-18T22:13:14.926Z,12.43
2018-10-18T22:15:42.000Z,5.87
2018-10-18T22:18:09.279Z,14.27
2018-10-18T22:20:36.240Z,12.70
2018-10-18T22:23:03.301Z,9.03
2018-10-18T22:25:30.169Z,11.23
2018-10-18T22:27:57.203Z,8.33
2018-10-18T22:30:24.110Z,9.47
2018-10-18T22:32:51.175Z,9.40
2018-10-18T22:35:18.094Z,7.43
2018-10-18T22:37:45.011Z,11.73
2018-10-18T22:40:11.988Z,10.10
2018-10-18T22:42:38.956Z,11.50
2018-10-18T22:45:06.347Z,8.97
2018-10-18T22:47:33.300Z,6.97
2018-10-18T22:50:00.234Z,14.30
2018-10-18T22:52:27.136Z,10.27
2018-10-18T22:54:54.092Z,8.17
2018-10-18T22:57:21.112Z,6.73
2018-10-18T22:59:48.236Z,14.27
2018-10-18T23:02:15.274Z,9.47
2018-10-18T23:04:42.230Z,9.90
2018-10-18T23:07:09.214Z,8.50
2018-10-18T23:09:36.157Z,7.63
2018-10-18T23:12:03.141Z,12.30
2018-10-18T23:14:30.120Z,12.27
2018-10-18T23:16:57.096Z,10.70
2018-10-18T23:19:24.059Z,8.93
2018-10-18T23:21:50.993Z,7.33
2018-10-18T23:24:18.012Z,12.37
2018-10-18T23:26:44.900Z,12.20
2018-10-18T23:29:11.856Z,9.07
2018-10-18T23:31:38.777Z,13.07
2018-10-18T23:34:05.689Z,5.80
2018-10-18T23:36:32.613Z,10.57
2018-10-18T23:38:59.519Z,10.43
2018-10-18T23:41:26.511Z,11.70
2018-10-18T23:43:53.444Z,13.07
2018-10-18T23:46:20.440Z,10.40
2018-10-18T23:48:47.370Z,12.00
2018-10-18T23:51:14.381Z,11.67
2018-10-18T23:53:41.261Z,9.23
2018-10-18T23:56:08.263Z,11.10
2018-10-18T23:58:35.204Z,10.63
